Time;durP1;ratioP1;P1;durP2;ratioP2;P2;SDS_P1;SDS_P2;PMS_P1;PMS_P2;Temp;Humidity;BMP_temperature;BMP_pressure;BME280_temperature;BME280_humidity;BME280_pressure;Samples;Min_cycle;Max_cycle;Signal;HPM_P1;HPM_P2
2021/11/08 13:44:06;;;;;;;4.00;1.03;;;;;;;;;;4921629;27;2336389;-40
2021/11/08 13:46:37;;;;;;;4.05;0.98;;;;;;;;;;5035799;28;20518;-42
2021/11/08 13:49:07;;;;;;;3.58;0.77;;;;;;;;;;5030707;28;20071;-43
2021/11/08 13:51:36;;;;;;;3.17;0.50;;;;;;;;;;5034050;28;20038;-50
2021/11/08 13:54:05;;;;;;;;;;;;;;;;;;5025537;28;20390;-56
2021/11/08 13:56:33;;;;;;;;;;;;;;;;;;5040989;28;20395;-54
2021/11/08 13:59:01;;;;;;;;;;;;;;;;;;5040537;28;19933;-54
2021/11/08 14:01:30;;;;;;;;;;;;;;;;;;5043381;28;20281;-56
2021/11/08 14:03:58;;;;;;;;;;;;;;;;;;5042336;28;19925;-53
2021/11/08 14:06:27;;;;;;;;;;;;;;;;;;5040837;28;19961;-54
2021/11/08 14:08:55;;;;;;;;;;;;;;;;;;5041620;28;19925;-57
2021/11/08 14:11:23;;;;;;;;;;;;;;;;;;5038451;28;19951;-56
2021/11/08 14:13:52;;;;;;;;;;;;;;;;;;5043064;28;19932;-58
2021/11/08 14:16:21;;;;;;;;;;;;;;;;;;5040059;28;19969;-56
2021/11/08 14:18:49;;;;;;;;;;;;;;;;;;5044571;28;20016;-55
2021/11/08 14:21:17;;;;;;;;;;;;;;;;;;5044292;28;19929;-63
2021/11/08 14:23:46;;;;;;;;;;;;;;;;;;5034684;28;19925;-58
2021/11/08 14:26:14;;;;;;;;;;;;;;;;;;5034807;28;20395;-55
2021/11/08 14:28:43;;;;;;;;;;;;;;;;;;5038563;28;19925;-56
2021/11/08 14:31:11;;;;;;;;;;;;;;;;;;5040632;28;19932;-56
2021/11/08 14:33:39;;;;;;;;;;;;;;;;;;5037534;28;21129;-54
2021/11/08 14:43:15;;;;;;;3.33;1.10;;;23.70;98.20;;;;;;5043388;27;2395162;-64
2021/11/08 14:46:22;;;;;;;5.22;1.58;;;22.80;85.30;;;;;;5051650;27;20422;-87
2021/11/08 14:48:51;;;;;;;5.37;1.30;;;19.40;76.50;;;;;;5045502;28;20418;-87
2021/11/08 14:51:28;;;;;;;4.18;1.10;;;17.30;81.10;;;;;;4828176;28;74920;-85
2021/11/08 14:54:00;;;;;;;4.70;1.30;;;15.60;85.90;;;;;;5030442;28;20480;-86
2021/11/08 14:56:31;;;;;;;4.90;1.33;;;14.50;90.00;;;;;;5043988;28;20543;-86
2021/11/08 14:59:02;;;;;;;6.03;1.40;;;13.60;91.90;;;;;;5041650;28;20418;-86
2021/11/08 15:01:36;;;;;;;6.70;1.58;;;13.00;93.10;;;;;;5046070;28;20520;-85
2021/11/08 15:04:06;;;;;;;8.70;1.42;;;12.60;93.90;;;;;;5053657;28;20414;-86
2021/11/08 15:06:37;;;;;;;6.47;1.40;;;12.40;94.80;;;;;;5062512;28;20850;-87
2021/11/08 15:09:10;;;;;;;7.07;1.42;;;12.20;95.00;;;;;;5039639;28;20792;-86
2021/11/08 15:11:40;;;;;;;7.88;1.55;;;12.00;95.50;;;;;;5039400;28;20420;-86
2021/11/08 15:14:11;;;;;;;7.18;1.88;;;11.90;96.10;;;;;;5025215;28;20420;-86
2021/11/08 15:16:48;;;;;;;9.75;2.38;;;11.80;96.30;;;;;;5046081;28;20467;-86
2021/11/08 15:19:19;;;;;;;6.87;2.07;;;11.70;96.80;;;;;;5051436;28;20417;-86
2021/11/08 15:21:53;;;;;;;6.07;1.95;;;11.60;97.20;;;;;;5042807;28;20740;-85
2021/11/08 15:24:26;;;;;;;7.93;2.23;;;11.50;97.30;;;;;;5045270;28;20436;-83
2021/11/08 15:26:57;;;;;;;9.25;2.60;;;11.40;97.60;;;;;;5041028;28;20420;-83
2021/11/08 15:29:29;;;;;;;10.57;2.00;;;11.40;98.10;;;;;;5055568;28;20475;-86
2021/11/08 15:32:13;;;;;;;7.23;2.23;;;11.40;98.20;;;;;;5061078;28;20414;-86
2021/11/08 15:34:43;;;;;;;7.23;2.07;;;11.40;98.10;;;;;;5038110;28;20408;-86
2021/11/08 15:37:15;;;;;;;6.95;1.80;;;11.40;98.20;;;;;;5041352;28;20420;-85
2021/11/08 15:39:43;;;;;;;6.55;1.80;;;11.40;98.20;;;;;;5058870;28;20418;-85
2021/11/08 15:42:13;;;;;;;8.77;2.33;;;11.40;98.30;;;;;;5045590;28;20939;-86
2021/11/08 15:44:42;;;;;;;8.97;2.40;;;11.40;98.40;;;;;;5059849;28;20777;-86
2021/11/08 15:47:12;;;;;;;9.55;2.15;;;11.40;98.60;;;;;;5060472;28;20421;-86
2021/11/08 15:49:47;;;;;;;8.20;2.17;;;11.30;98.60;;;;;;5041267;28;20509;-85
2021/11/08 15:52:16;;;;;;;8.40;2.80;;;11.30;98.80;;;;;;5043859;28;20430;-87
2021/11/08 15:54:44;;;;;;;8.95;2.83;;;11.20;99.00;;;;;;5040765;28;20979;-86
2021/11/08 15:57:16;;;;;;;9.15;2.72;;;11.30;99.10;;;;;;5033951;28;20498;-87
2021/11/08 15:59:45;;;;;;;6.60;2.50;;;11.30;98.90;;;;;;5032157;28;20490;-86
2021/11/08 16:02:14;;;;;;;7.53;2.10;;;11.40;98.90;;;;;;5032990;28;20423;-85
2021/11/08 16:04:43;;;;;;;7.85;2.00;;;11.30;99.00;;;;;;5040835;28;20479;-86
2021/11/08 16:07:11;;;;;;;7.35;2.03;;;11.30;99.20;;;;;;5054214;28;20407;-88
2021/11/08 16:09:40;;;;;;;5.95;1.90;;;11.20;99.10;;;;;;5046820;28;20451;-88
2021/11/08 16:12:10;;;;;;;11.48;4.68;;;11.20;99.20;;;;;;5025212;28;20492;-86
2021/11/08 16:14:38;;;;;;;7.63;2.38;;;11.20;99.10;;;;;;5036105;28;20407;-86
2021/11/08 16:17:06;;;;;;;8.30;2.60;;;11.30;99.10;;;;;;5031871;28;20415;-85
2021/11/08 16:19:36;;;;;;;8.73;2.33;;;11.20;99.30;;;;;;5020228;28;20866;-86
2021/11/08 16:22:05;;;;;;;9.40;2.70;;;11.20;99.40;;;;;;5014934;28;20978;-85
2021/11/08 16:24:34;;;;;;;9.43;3.00;;;11.20;99.60;;;;;;5014862;28;20514;-84
2021/11/08 16:27:04;;;;;;;10.57;2.58;;;11.20;99.30;;;;;;5031207;28;20438;-85
2021/11/08 16:29:32;;;;;;;9.27;2.63;;;11.20;99.40;;;;;;5046758;28;20451;-85
2021/11/08 16:32:14;;;;;;;9.40;2.90;;;11.20;99.40;;;;;;5014388;28;20442;-85
2021/11/08 16:34:45;;;;;;;8.53;3.13;;;11.20;99.60;;;;;;5009449;28;20417;-85
2021/11/08 16:37:18;;;;;;;10.63;3.30;;;11.10;99.40;;;;;;5018743;28;20480;-84
2021/11/08 16:39:47;;;;;;;10.47;3.03;;;11.10;99.20;;;;;;5024659;28;20455;-85
2021/11/08 16:42:16;;;;;;;8.63;3.00;;;11.10;99.40;;;;;;5020310;28;20421;-84
2021/11/08 16:44:46;;;;;;;8.00;2.93;;;11.20;99.80;;;;;;5001171;28;20775;-86
2021/11/08 16:47:15;;;;;;;10.50;2.63;;;11.20;99.60;;;;;;5020886;28;20921;-86
2021/11/08 16:49:48;;;;;;;10.52;2.97;;;11.10;99.50;;;;;;5023654;28;20480;-86
2021/11/08 16:52:19;;;;;;;11.05;2.72;;;11.20;99.60;;;;;;5030937;28;20439;-85
2021/11/08 16:54:49;;;;;;;8.98;2.63;;;11.20;99.70;;;;;;5028212;28;20439;-86
2021/11/08 16:57:18;;;;;;;10.98;2.65;;;11.20;99.50;;;;;;5023528;28;20730;-85
2021/11/08 16:59:48;;;;;;;10.65;2.50;;;11.20;99.60;;;;;;5024181;28;20417;-85
2021/11/08 17:02:18;;;;;;;9.43;2.67;;;11.30;99.70;;;;;;5030768;28;20473;-85
2021/11/08 17:04:50;;;;;;;9.15;2.55;;;11.30;99.50;;;;;;5030318;28;20429;-86
2021/11/08 17:07:19;;;;;;;8.70;2.63;;;11.30;99.40;;;;;;5028720;28;20507;-86
2021/11/08 17:10:03;;;;;;;7.82;2.45;;;11.40;99.50;;;;;;5030531;28;20419;-86
2021/11/08 17:15:18;;;;;;;8.85;2.60;;;11.30;99.50;;;;;;5028112;28;20489;-85
2021/11/08 17:17:47;;;;;;;6.40;2.67;;;11.40;99.90;;;;;;5027102;28;20509;-85
2021/11/08 17:20:19;;;;;;;8.63;2.20;;;11.30;99.60;;;;;;5026707;28;20428;-86
2021/11/08 17:22:47;;;;;;;9.18;2.97;;;11.30;99.40;;;;;;5011389;28;20505;-86
2021/11/08 17:25:16;;;;;;;11.32;3.30;;;11.30;99.20;;;;;;5021689;28;20459;-85
2021/11/08 17:27:49;;;;;;;9.13;3.03;;;11.30;99.40;;;;;;5011460;28;20963;-86
2021/11/08 17:30:19;;;;;;;12.50;3.70;;;11.30;99.40;;;;;;5046314;28;20462;-87
2021/11/08 17:33:14;;;;;;;11.65;4.47;;;11.30;99.30;;;;;;5030348;28;20430;-86
2021/11/08 17:35:45;;;;;;;12.03;4.80;;;11.30;99.40;;;;;;5007097;28;20414;-85
2021/11/08 17:38:16;;;;;;;12.88;4.40;;;11.20;99.60;;;;;;5006659;28;20416;-87
2021/11/08 17:40:45;;;;;;;10.60;4.05;;;11.10;99.80;;;;;;5011801;28;20415;-86
2021/11/08 17:43:14;;;;;;;14.50;4.22;;;11.10;99.70;;;;;;5023320;28;20677;-85
2021/11/08 17:45:44;;;;;;;10.95;4.10;;;11.20;99.90;;;;;;4995733;28;20489;-85
2021/11/08 17:48:13;;;;;;;11.87;4.10;;;11.10;99.90;;;;;;5007938;28;20797;-86
2021/11/08 17:50:47;;;;;;;10.30;4.13;;;11.10;99.90;;;;;;4998355;28;20431;-84
2021/11/08 17:53:17;;;;;;;12.80;4.40;;;11.10;99.90;;;;;;5011255;28;21121;-85
2021/11/08 17:55:46;;;;;;;12.60;4.47;;;11.10;99.80;;;;;;4995194;28;20446;-86
2021/11/08 17:58:16;;;;;;;11.75;4.50;;;11.10;99.90;;;;;;4996260;28;20447;-84
2021/11/08 18:00:46;;;;;;;13.90;4.95;;;11.10;99.90;;;;;;5011439;28;20499;-85
2021/11/08 18:03:16;;;;;;;11.13;4.20;;;11.10;99.90;;;;;;5025748;28;20412;-89
2021/11/08 18:05:46;;;;;;;13.00;4.32;;;11.00;99.90;;;;;;5015081;28;20446;-86
2021/11/08 18:08:17;;;;;;;13.27;5.20;;;11.00;99.90;;;;;;5005214;28;20415;-85
2021/11/08 18:10:46;;;;;;;13.90;5.18;;;10.90;99.90;;;;;;4997541;28;20568;-86
2021/11/08 18:13:17;;;;;;;13.73;5.55;;;10.90;99.90;;;;;;4999196;28;20485;-86
2021/11/08 18:15:48;;;;;;;13.27;4.60;;;10.90;99.90;;;;;;5012199;28;20433;-86
2021/11/08 18:18:19;;;;;;;12.95;4.60;;;10.90;99.90;;;;;;4998867;28;20414;-88
2021/11/08 18:20:58;;;;;;;12.80;4.22;;;10.90;99.90;;;;;;4995971;28;20791;-82
2021/11/08 18:23:34;;;;;;;11.48;4.22;;;10.80;99.90;;;;;;5012935;28;20431;-87
2021/11/08 18:28:56;;;;;;;11.65;3.92;;;10.60;99.90;;;;;;5024062;28;21046;-79
2021/11/08 18:31:25;;;;;;;11.10;4.60;;;10.50;99.90;;;;;;4996739;28;20564;-80
2021/11/08 18:33:55;;;;;;;11.68;4.28;;;10.50;99.90;;;;;;5012128;28;20435;-80
2021/11/08 18:36:26;;;;;;;12.23;5.07;;;10.40;99.90;;;;;;5005242;28;20423;-81
2021/11/08 18:38:58;;;;;;;12.57;4.60;;;10.30;99.90;;;;;;5008367;28;20427;-80
2021/11/08 18:41:28;;;;;;;11.25;4.50;;;10.30;99.90;;;;;;5010168;28;20423;-81
2021/11/08 18:43:58;;;;;;;11.38;4.57;;;10.30;99.90;;;;;;4949259;28;20926;-80
2021/11/08 18:46:28;;;;;;;13.80;5.57;;;10.30;99.90;;;;;;5010410;28;20490;-80
2021/11/08 18:48:56;;;;;;;12.70;4.95;;;10.30;99.90;;;;;;5028136;28;20448;-81
2021/11/08 18:51:27;;;;;;;15.85;5.70;;;10.30;99.90;;;;;;5033205;28;20481;-84
2021/11/08 18:53:56;;;;;;;11.88;5.15;;;10.30;99.90;;;;;;5042259;28;20426;-81
2021/11/08 18:56:28;;;;;;;14.82;6.03;;;10.30;99.90;;;;;;5024203;28;20441;-80
2021/11/08 18:58:58;;;;;;;13.52;5.50;;;10.30;99.90;;;;;;5047571;28;20433;-93
2021/11/08 19:01:36;;;;;;;14.15;5.32;;;10.30;99.90;;;;;;5027984;28;20526;-88
2021/11/08 19:04:15;;;;;;;13.20;5.90;;;10.20;99.90;;;;;;5039383;28;20431;-84
2021/11/08 19:06:58;;;;;;;12.77;5.80;;;10.20;99.90;;;;;;5032913;28;20426;-89
2021/11/08 19:09:28;;;;;;;15.02;5.95;;;10.20;99.90;;;;;;5026421;28;20413;-85
2021/11/08 19:12:01;;;;;;;12.00;5.40;;;10.10;99.90;;;;;;5016800;28;20450;-86
2021/11/08 19:14:32;;;;;;;13.98;5.60;;;10.10;99.90;;;;;;5037096;28;20435;-87
2021/11/08 19:17:02;;;;;;;11.75;5.40;;;10.00;99.90;;;;;;5017832;28;20508;-86
2021/11/08 19:19:33;;;;;;;12.55;5.45;;;10.00;99.90;;;;;;5035181;28;20474;-85
2021/11/08 19:22:10;;;;;;;14.30;5.73;;;10.00;99.90;;;;;;5036635;28;20426;-87
2021/11/08 19:24:41;;;;;;;15.40;5.57;;;9.90;99.90;;;;;;5049247;28;20473;-87
2021/11/08 19:27:11;;;;;;;13.90;5.68;;;9.90;99.90;;;;;;5018527;28;20452;-87
2021/11/08 19:29:49;;;;;;;14.53;5.30;;;9.80;99.90;;;;;;5021375;28;20465;-85
2021/11/08 19:32:21;;;;;;;11.07;5.53;;;9.80;99.90;;;;;;5021757;28;20407;-85
2021/11/08 19:37:51;;;;;;;13.95;5.53;;;9.90;99.90;;;;;;5024089;28;20488;-84
2021/11/08 19:37:52;;;;;;;13.88;5.70;;;9.90;99.90;;;;;;5039035;28;20423;-85
2021/11/08 19:40:27;;;;;;;13.93;5.60;;;9.90;99.90;;;;;;5023236;28;20423;-85
2021/11/08 19:42:57;;;;;;;14.52;6.15;;;9.90;99.90;;;;;;5022132;28;20438;-85
2021/11/08 19:45:30;;;;;;;14.07;6.40;;;9.80;99.90;;;;;;5040206;28;20429;-85
2021/11/08 19:48:01;;;;;;;13.48;6.32;;;9.90;99.90;;;;;;5021700;28;20457;-86
2021/11/08 19:50:33;;;;;;;15.17;6.17;;;9.90;99.90;;;;;;5020295;28;20494;-87
2021/11/08 19:53:09;;;;;;;13.55;6.15;;;10.00;99.90;;;;;;5037748;28;21263;-85
2021/11/08 19:55:39;;;;;;;14.88;6.00;;;10.00;99.90;;;;;;5023652;28;20484;-86
2021/11/08 19:58:09;;;;;;;13.98;5.72;;;10.00;99.90;;;;;;5050831;28;20471;-86
2021/11/08 20:00:39;;;;;;;13.93;6.38;;;10.00;99.90;;;;;;5014506;28;20420;-86
2021/11/08 20:03:11;;;;;;;12.30;5.88;;;10.00;99.90;;;;;;5028413;28;20479;-86
2021/11/08 20:05:40;;;;;;;11.57;5.40;;;10.00;99.90;;;;;;5010890;28;20588;-85
2021/11/08 20:08:13;;;;;;;12.13;4.80;;;10.10;99.90;;;;;;5007628;28;20464;-87
2021/11/08 20:10:43;;;;;;;12.37;5.33;;;10.10;99.90;;;;;;5048913;28;20476;-87
2021/11/08 20:13:20;;;;;;;14.38;5.35;;;10.20;99.90;;;;;;5032218;28;20423;-85
2021/11/08 20:15:50;;;;;;;11.85;5.38;;;10.20;99.90;;;;;;5018168;28;20415;-88
2021/11/08 20:18:20;;;;;;;11.20;5.10;;;10.10;99.90;;;;;;5010182;28;20423;-86
2021/11/08 20:20:51;;;;;;;12.38;5.63;;;10.10;99.90;;;;;;5014032;28;20419;-86
2021/11/08 20:23:29;;;;;;;12.40;5.60;;;10.10;99.90;;;;;;5016502;28;20421;-87
2021/11/08 20:26:00;;;;;;;12.85;6.00;;;10.10;99.90;;;;;;5014021;28;20423;-85
2021/11/08 20:28:36;;;;;;;13.60;6.13;;;10.10;99.90;;;;;;5025885;28;20427;-86
2021/11/08 20:31:38;;;;;;;13.00;6.00;;;10.20;99.90;;;;;;5030687;28;20417;-86
2021/11/08 20:34:32;;;;;;;13.52;5.43;;;10.10;99.90;;;;;;5008657;28;20437;-85
2021/11/08 20:37:32;;;;;;;11.95;5.40;;;10.10;99.90;;;;;;5014316;28;20415;-86
2021/11/08 20:40:12;;;;;;;11.77;5.22;;;10.10;99.90;;;;;;5015089;28;20457;-87
2021/11/08 20:42:49;;;;;;;11.98;5.45;;;10.20;99.90;;;;;;5027963;28;21161;-90
2021/11/08 20:45:36;;;;;;;28.88;14.30;;;10.20;99.90;;;;;;5026120;28;20446;-88
2021/11/08 20:51:06;;;;;;;14.85;7.78;;;10.30;99.90;;;;;;5024285;28;20490;-89
2021/11/08 20:53:39;;;;;;;17.70;10.00;;;10.30;99.90;;;;;;5029434;28;20454;-88
2021/11/08 20:59:10;;;;;;;14.50;6.55;;;10.20;99.90;;;;;;5039508;28;20440;-87
2021/11/08 21:01:41;;;;;;;14.38;6.90;;;10.10;99.90;;;;;;5045071;28;20504;-88
2021/11/08 21:04:20;;;;;;;14.15;7.32;;;10.20;99.90;;;;;;5032217;28;20539;-86
2021/11/08 21:06:57;;;;;;;15.00;7.70;;;10.10;99.90;;;;;;5046698;28;20530;-86
2021/11/08 21:12:29;;;;;;;13.50;7.20;;;10.20;99.90;;;;;;4990640;28;20487;-88
2021/11/08 21:14:59;;;;;;;17.30;7.13;;;10.20;99.90;;;;;;5028831;28;20432;-88
2021/11/08 21:17:29;;;;;;;15.52;8.82;;;10.30;99.90;;;;;;5033171;28;20422;-88
2021/11/08 21:19:57;;;;;;;16.55;8.95;;;10.20;99.90;;;;;;5048427;28;20799;-89
2021/11/08 21:22:26;;;;;;;13.50;6.13;;;10.20;99.90;;;;;;5035732;28;20432;-89
2021/11/08 21:24:58;;;;;;;11.00;5.88;;;10.00;99.90;;;;;;5039841;28;20801;-87
2021/11/08 21:27:31;;;;;;;13.07;6.38;;;10.00;99.90;;;;;;5037382;28;20419;-85
2021/11/08 21:30:02;;;;;;;13.02;5.95;;;9.90;99.90;;;;;;5022032;28;20455;-85
2021/11/08 21:32:45;;;;;;;11.13;5.70;;;9.90;99.90;;;;;;5044638;28;20430;-84
2021/11/08 21:38:09;;;;;;;13.15;5.53;;;9.70;99.90;;;;;;5064037;28;20559;-85
2021/11/08 21:40:40;;;;;;;10.03;4.47;;;9.70;99.90;;;;;;5048075;28;20485;-84
2021/11/08 21:43:12;;;;;;;13.27;5.60;;;9.60;99.90;;;;;;5043466;28;20502;-85
2021/11/08 21:45:45;;;;;;;14.23;5.40;;;9.70;99.90;;;;;;5051993;28;20415;-83
2021/11/08 21:48:13;;;;;;;11.95;4.70;;;9.70;99.90;;;;;;5027194;28;20423;-84
2021/11/08 21:50:44;;;;;;;10.60;4.90;;;9.60;99.90;;;;;;5046131;28;20408;-86
2021/11/08 21:53:15;;;;;;;12.45;4.45;;;9.50;99.90;;;;;;5039197;28;20531;-86
2021/11/08 21:55:47;;;;;;;11.27;4.20;;;9.50;99.90;;;;;;5027257;28;20420;-86
2021/11/08 21:58:17;;;;;;;10.57;4.50;;;9.50;99.90;;;;;;5040512;28;20417;-86
2021/11/08 22:00:46;;;;;;;9.65;5.03;;;9.50;99.90;;;;;;5035649;28;20412;-85
2021/11/08 22:03:15;;;;;;;10.73;5.10;;;9.50;99.90;;;;;;5034067;28;20415;-86
2021/11/08 22:05:43;;;;;;;12.63;7.23;;;9.50;99.90;;;;;;5029356;28;20430;-85
2021/11/08 22:08:12;;;;;;;15.43;7.90;;;9.40;99.90;;;;;;5030521;28;20454;-86
2021/11/08 22:10:41;;;;;;;14.05;6.57;;;9.10;99.90;;;;;;5035267;28;20441;-86
2021/11/08 22:13:12;;;;;;;14.85;7.80;;;9.00;99.90;;;;;;5043308;28;20494;-86
2021/11/08 22:15:42;;;;;;;16.65;7.32;;;9.10;99.90;;;;;;5023895;28;20423;-86
2021/11/08 22:18:11;;;;;;;12.80;6.00;;;9.20;99.90;;;;;;5034612;28;20432;-86
2021/11/08 22:20:41;;;;;;;13.57;6.60;;;9.20;99.90;;;;;;5028471;28;20411;-86
2021/11/08 22:23:35;;;;;;;14.43;5.75;;;9.20;99.90;;;;;;5030068;28;20407;-87
2021/11/08 22:26:06;;;;;;;12.60;5.30;;;9.20;99.90;;;;;;5028454;28;20431;-86
2021/11/08 22:28:36;;;;;;;11.05;5.65;;;9.20;99.90;;;;;;5033373;28;20427;-85
2021/11/08 22:31:30;;;;;;;14.15;6.88;;;9.20;99.90;;;;;;5036397;28;20417;-85
2021/11/08 22:34:00;;;;;;;12.43;6.45;;;9.20;99.90;;;;;;5030029;28;20453;-85
2021/11/08 22:36:34;;;;;;;11.75;5.88;;;9.20;99.90;;;;;;5030395;28;20426;-86
2021/11/08 22:39:04;;;;;;;12.25;6.15;;;9.10;99.90;;;;;;5031112;28;20416;-86
2021/11/08 22:41:32;;;;;;;12.93;5.60;;;9.20;99.90;;;;;;5028889;28;20423;-85
2021/11/08 22:44:01;;;;;;;13.45;6.70;;;9.20;99.90;;;;;;5032888;28;20461;-85
2021/11/08 22:46:32;;;;;;;13.48;8.05;;;9.20;99.90;;;;;;5029467;28;20541;-85
2021/11/08 22:49:01;;;;;;;15.20;6.60;;;9.30;99.90;;;;;;5037750;28;20945;-84
2021/11/08 22:51:32;;;;;;;12.07;5.43;;;9.20;99.90;;;;;;5045921;28;20403;-85
2021/11/08 22:54:01;;;;;;;15.25;6.30;;;9.10;99.90;;;;;;5035425;28;20426;-85
2021/11/08 22:56:30;;;;;;;13.57;6.43;;;9.10;99.90;;;;;;5030243;28;20473;-85
2021/11/08 22:58:58;;;;;;;13.02;6.25;;;9.10;99.90;;;;;;5047037;28;20498;-87
2021/11/08 23:01:27;;;;;;;11.50;5.77;;;9.10;99.90;;;;;;5019105;28;20475;-87
2021/11/08 23:03:57;;;;;;;12.25;5.40;;;9.00;99.90;;;;;;5014387;28;20428;-87
2021/11/08 23:06:26;;;;;;;12.38;5.47;;;9.10;99.90;;;;;;5031400;28;20483;-86
2021/11/08 23:08:56;;;;;;;12.57;5.35;;;9.20;99.90;;;;;;5029159;28;20492;-85
2021/11/08 23:11:25;;;;;;;12.70;5.32;;;9.20;99.90;;;;;;5033536;28;20415;-85
2021/11/08 23:13:54;;;;;;;11.43;5.20;;;9.20;99.90;;;;;;5043857;28;20747;-88
2021/11/08 23:16:25;;;;;;;9.77;5.25;;;9.20;99.90;;;;;;5047929;28;20472;-84
2021/11/08 23:18:57;;;;;;;11.15;4.97;;;9.20;99.90;;;;;;5045880;28;20419;-85
2021/11/08 23:21:29;;;;;;;12.45;5.13;;;9.30;99.90;;;;;;5039703;28;20604;-84
2021/11/08 23:24:03;;;;;;;10.40;4.85;;;9.40;99.90;;;;;;5059295;28;20409;-84
2021/11/08 23:26:32;;;;;;;13.35;5.30;;;9.40;99.90;;;;;;5047890;28;20408;-85
2021/11/08 23:29:02;;;;;;;12.45;5.43;;;9.40;99.90;;;;;;5033091;28;20440;-85
2021/11/08 23:31:31;;;;;;;13.10;5.13;;;9.50;99.90;;;;;;5029602;28;20805;-84
2021/11/08 23:34:02;;;;;;;10.83;5.27;;;9.60;99.90;;;;;;5034840;28;20411;-84
2021/11/08 23:36:31;;;;;;;13.43;5.27;;;9.60;99.90;;;;;;5036523;28;20450;-87
2021/11/08 23:39:00;;;;;;;19.27;6.03;;;9.60;99.90;;;;;;5035809;28;20442;-85
2021/11/08 23:41:29;;;;;;;13.38;5.32;;;9.30;99.90;;;;;;5032112;28;20430;-85
2021/11/08 23:43:58;;;;;;;13.10;5.20;;;9.10;99.90;;;;;;5016671;28;20521;-85
2021/11/08 23:46:27;;;;;;;12.45;5.22;;;9.00;99.90;;;;;;5031853;28;20429;-85
2021/11/08 23:48:56;;;;;;;12.93;4.82;;;9.10;99.90;;;;;;5026789;28;20517;-84
2021/11/08 23:51:25;;;;;;;13.27;4.97;;;9.00;99.90;;;;;;5039652;28;20457;-86
2021/11/08 23:53:54;;;;;;;10.73;4.63;;;8.90;99.90;;;;;;5027173;28;20441;-85
2021/11/08 23:56:23;;;;;;;10.85;4.55;;;9.00;99.90;;;;;;5033536;28;20427;-85
2021/11/08 23:58:52;;;;;;;11.52;5.43;;;9.00;99.90;;;;;;5033390;28;20416;-85
